Time;durP1;ratioP1;P1;durP2;ratioP2;P2;SDS_P1;SDS_P2;PMS_P1;PMS_P2;Temp;Humidity;BMP_temperature;BMP_pressure;BME280_temperature;BME280_humidity;BME280_pressure;Samples;Min_cycle;Max_cycle;Signal;HPM_P1;HPM_P2
2021/04/18 00:00:16;;;;;;;;;;;;;;;;;;5093123;28;19919;-74
2021/04/18 00:02:42;;;;;;;;;;;;;;;;;;5093378;28;19911;-74
2021/04/18 00:05:08;;;;;;;;;;;;;;;;;;5093649;28;19919;-74
2021/04/18 00:07:33;;;;;;;;;;;;;;;;;;5091882;28;20262;-74
2021/04/18 00:09:59;;;;;;;;;;;;;;;;;;5092179;28;19912;-74
2021/04/18 00:12:25;;;;;;;;;;;;;;;;;;5096787;28;19912;-74
2021/04/18 00:14:50;;;;;;;;;;;;;;;;;;5097404;28;20015;-74
2021/04/18 00:17:15;;;;;;;;;;;;;;;;;;5096974;28;20005;-74
2021/04/18 00:19:41;;;;;;;;;;;;;;;;;;5097147;28;19920;-74
2021/04/18 00:22:06;;;;;;;;;;;;;;;;;;5097229;28;19918;-74
2021/04/18 00:24:31;;;;;;;;;;;;;;;;;;5097091;28;19918;-74
2021/04/18 00:26:57;;;;;;;;;;;;;;;;;;5096849;28;19912;-74
2021/04/18 00:29:22;;;;;;;;;;;;;;;;;;5097058;28;19957;-74
2021/04/18 00:31:47;;;;;;;;;;;;;;;;;;5096538;28;19927;-74
2021/04/18 00:34:13;;;;;;;;;;;;;;;;;;5095754;28;19916;-74
2021/04/18 00:36:38;;;;;;;;;;;;;;;;;;5096864;28;19927;-74
2021/04/18 00:39:03;;;;;;;;;;;;;;;;;;5096885;28;20340;-74
2021/04/18 00:41:31;;;;;;;;;;;;;;;;;;5096504;28;19919;-74
2021/04/18 00:43:56;;;;;;;;;;;;;;;;;;5096759;28;19912;-74
2021/04/18 00:46:21;;;;;;;;;;;;;;;;;;5096617;28;19919;-74
2021/04/18 00:48:47;;;;;;;;;;;;;;;;;;5096353;28;19912;-74
2021/04/18 00:51:13;;;;;;;;;;;;;;;;;;5096500;28;20389;-74
2021/04/18 00:53:38;;;;;;;;;;;;;;;;;;5096527;28;19912;-74
2021/04/18 00:56:04;;;;;;;;;;;;;;;;;;5096530;28;19911;-74
2021/04/18 00:58:29;;;;;;;;;;;;;;;;;;5096204;28;19970;-74
2021/04/18 01:00:55;;;;;;;;;;;;;;;;;;5096403;28;19916;-74
2021/04/18 01:03:21;;;;;;;;;;;;;;;;;;5095140;28;20021;-74
2021/04/18 01:05:47;;;;;;;;;;;;;;;;;;5096447;28;19919;-74
2021/04/18 01:08:13;;;;;;;;;;;;;;;;;;5094889;28;19995;-74
2021/04/18 01:10:39;;;;;;;;;;;;;;;;;;5094031;28;19911;-74
2021/04/18 01:13:06;;;;;;;;;;;;;;;;;;5096321;28;19915;-74
2021/04/18 01:15:31;;;;;;;;;;;;;;;;;;5096074;28;19945;-74
2021/04/18 01:17:56;;;;;;;;;;;;;;;;;;5096057;28;20341;-74
2021/04/18 01:20:23;;;;;;;;;;;;;;;;;;5096192;28;19922;-74
2021/04/18 01:22:57;;;;;;;;;;;;;;;;;;5093984;28;20290;-74
2021/04/18 01:25:32;;;;;;;;;;;;;;;;;;5094458;28;19991;-74
2021/04/18 01:28:14;;;;;;;;;;;;;;;;;;5094313;28;19919;-74
2021/04/18 01:30:41;;;;;;;;;;;;;;;;;;5094527;28;19919;-74
2021/04/18 01:33:07;;;;;;;;;;;;;;;;;;5095686;28;19974;-74
2021/04/18 01:35:33;;;;;;;;;;;;;;;;;;5094545;28;20324;-74
2021/04/18 01:37:58;;;;;;;;;;;;;;;;;;5095537;28;19912;-74
2021/04/18 01:40:25;;;;;;;;;;;;;;;;;;5093940;28;20423;-74
2021/04/18 01:42:51;;;;;;;;;;;;;;;;;;5087012;28;19921;-74
2021/04/18 01:45:17;;;;;;;;;;;;;;;;;;5075243;28;19912;-74
2021/04/18 01:47:43;;;;;;;;;;;;;;;;;;5075188;28;19963;-74
2021/04/18 01:50:10;;;;;;;;;;;;;;;;;;5075331;28;19935;-74
2021/04/18 01:52:36;;;;;;;;;;;;;;;;;;5074262;28;20251;-74
2021/04/18 01:55:03;;;;;;;;;;;;;;;;;;5073527;28;19912;-74
2021/04/18 01:57:32;;;;;;;;;;;;;;;;;;5074924;28;19973;-74
2021/04/18 01:59:59;;;;;;;;;;;;;;;;;;5073709;28;20293;-74
2021/04/18 02:02:38;;;;;;;;;;;;;;;;;;5075158;28;19912;-73
2021/04/18 02:05:09;;;;;;;;;;;;;;;;;;5073622;28;20389;-74
2021/04/18 02:07:35;;;;;;;;;;;;;;;;;;5073354;28;19966;-74
2021/04/18 02:10:01;;;;;;;;;;;;;;;;;;5076129;28;19955;-74
2021/04/18 02:12:29;;;;;;;;;;;;;;;;;;5093772;28;20377;-74
2021/04/18 02:14:55;;;;;;;;;;;;;;;;;;5093998;28;19922;-74
2021/04/18 02:17:23;;;;;;;;;;;;;;;;;;5093784;28;19912;-74
2021/04/18 02:19:48;;;;;;;;;;;;;;;;;;5093606;28;19916;-74
2021/04/18 02:22:15;;;;;;;;;;;;;;;;;;5094614;28;19920;-74
2021/04/18 02:24:45;;;;;;;;;;;;;;;;;;5093414;28;19915;-74
2021/04/18 02:27:11;;;;;;;;;;;;;;;;;;5094662;28;20006;-74
2021/04/18 02:29:44;;;;;;;;;;;;;;;;;;5093386;28;19912;-74
2021/04/18 02:32:15;;;;;;;;;;;;;;;;;;5093350;28;19920;-74
2021/04/18 02:34:49;;;;;;;;;;;;;;;;;;5092430;28;19911;-74
2021/04/18 02:37:16;;;;;;;;;;;;;;;;;;5093254;28;20550;-74
2021/04/18 02:39:41;;;;;;;;;;;;;;;;;;5092937;28;19920;-74
2021/04/18 02:42:06;;;;;;;;;;;;;;;;;;5093776;28;19957;-74
2021/04/18 02:44:32;;;;;;;;;;;;;;;;;;5093476;28;20293;-74
2021/04/18 02:46:58;;;;;;;;;;;;;;;;;;5093155;28;19999;-74
2021/04/18 02:49:24;;;;;;;;;;;;;;;;;;5093088;28;19919;-74
2021/04/18 02:51:50;;;;;;;;;;;;;;;;;;5093167;28;19912;-74
2021/04/18 02:54:16;;;;;;;;;;;;;;;;;;5094502;28;20278;-74
2021/04/18 02:56:48;;;;;;;;;;;;;;;;;;5094036;28;19994;-74
2021/04/18 02:59:16;;;;;;;;;;;;;;;;;;5094298;28;20011;-74
2021/04/18 03:01:42;;;;;;;;;;;;;;;;;;5092640;28;19943;-74
2021/04/18 03:04:07;;;;;;;;;;;;;;;;;;5094278;28;19957;-74
2021/04/18 03:06:33;;;;;;;;;;;;;;;;;;5094236;28;19964;-74
2021/04/18 03:08:59;;;;;;;;;;;;;;;;;;5094053;28;19912;-74
2021/04/18 03:11:25;;;;;;;;;;;;;;;;;;5092737;28;19912;-74
2021/04/18 03:13:53;;;;;;;;;;;;;;;;;;5092863;28;19947;-74
2021/04/18 03:16:19;;;;;;;;;;;;;;;;;;5092991;28;19955;-74
2021/04/18 03:18:44;;;;;;;;;;;;;;;;;;5093064;28;19926;-74
2021/04/18 03:21:11;;;;;;;;;;;;;;;;;;5092779;28;19912;-73
2021/04/18 03:23:37;;;;;;;;;;;;;;;;;;5093805;28;19916;-74
2021/04/18 03:26:03;;;;;;;;;;;;;;;;;;5092363;28;19995;-74
2021/04/18 03:28:30;;;;;;;;;;;;;;;;;;5092500;28;19911;-74
2021/04/18 03:30:57;;;;;;;;;;;;;;;;;;5092256;28;19916;-74
2021/04/18 03:33:25;;;;;;;;;;;;;;;;;;5092730;28;19950;-74
2021/04/18 03:36:00;;;;;;;;;;;;;;;;;;5092584;28;20278;-74
2021/04/18 03:38:26;;;;;;;;;;;;;;;;;;5093548;28;19923;-73
2021/04/18 03:40:52;;;;;;;;;;;;;;;;;;5093488;28;19911;-73
2021/04/18 03:43:17;;;;;;;;;;;;;;;;;;5092283;28;20424;-74
2021/04/18 03:45:42;;;;;;;;;;;;;;;;;;5094611;28;19915;-74
2021/04/18 03:48:09;;;;;;;;;;;;;;;;;;5096731;28;19912;-74
2021/04/18 03:50:34;;;;;;;;;;;;;;;;;;5096524;28;20092;-74
2021/04/18 03:53:18;;;;;;;;;;;;;;;;;;5097934;28;19919;-74
2021/04/18 03:55:49;;;;;;;;;;;;;;;;;;5096236;28;19961;-74
2021/04/18 03:58:18;;;;;;;;;;;;;;;;;;5096218;28;20377;-74
2021/04/18 04:00:51;;;;;;;;;;;;;;;;;;5096480;28;20293;-74
2021/04/18 04:03:17;;;;;;;;;;;;;;;;;;5096078;28;19916;-74
2021/04/18 04:05:46;;;;;;;;;;;;;;;;;;5096327;28;19985;-74
2021/04/18 04:08:14;;;;;;;;;;;;;;;;;;5095856;28;19912;-74
2021/04/18 04:10:40;;;;;;;;;;;;;;;;;;5095867;28;20385;-75
2021/04/18 04:13:06;;;;;;;;;;;;;;;;;;5095882;28;20002;-74
2021/04/18 04:15:33;;;;;;;;;;;;;;;;;;5096187;28;19912;-73
2021/04/18 04:18:00;;;;;;;;;;;;;;;;;;5097104;28;19912;-74
2021/04/18 04:20:44;;;;;;;;;;;;;;;;;;5097678;28;19957;-74
2021/04/18 04:23:28;;;;;;;;;;;;;;;;;;5097146;28;19919;-74
2021/04/18 04:25:53;;;;;;;;;;;;;;;;;;5095877;28;19912;-73
2021/04/18 04:28:18;;;;;;;;;;;;;;;;;;5096810;28;20336;-74
2021/04/18 04:30:43;;;;;;;;;;;;;;;;;;5097298;28;19950;-74
2021/04/18 04:33:09;;;;;;;;;;;;;;;;;;5096981;28;20029;-74
2021/04/18 04:35:34;;;;;;;;;;;;;;;;;;5096260;28;19959;-74
2021/04/18 04:38:00;;;;;;;;;;;;;;;;;;5095692;28;20014;-74
2021/04/18 04:40:25;;;;;;;;;;;;;;;;;;5096639;28;19916;-74
2021/04/18 04:42:51;;;;;;;;;;;;;;;;;;5096709;28;19964;-74
2021/04/18 04:45:16;;;;;;;;;;;;;;;;;;5097043;28;19918;-74
2021/04/18 04:47:42;;;;;;;;;;;;;;;;;;5095609;28;20324;-74
2021/04/18 04:50:08;;;;;;;;;;;;;;;;;;5096539;28;20320;-74
2021/04/18 04:52:33;;;;;;;;;;;;;;;;;;5096796;28;19915;-74
2021/04/18 04:54:59;;;;;;;;;;;;;;;;;;5095682;28;19912;-74
2021/04/18 04:57:24;;;;;;;;;;;;;;;;;;5095007;28;19954;-74
2021/04/18 04:59:50;;;;;;;;;;;;;;;;;;5096387;28;20392;-74
2021/04/18 05:02:15;;;;;;;;;;;;;;;;;;5096623;28;20297;-73
2021/04/18 05:04:40;;;;;;;;;;;;;;;;;;5096400;28;19911;-74
2021/04/18 05:07:05;;;;;;;;;;;;;;;;;;5095508;28;19918;-74
2021/04/18 05:09:31;;;;;;;;;;;;;;;;;;5096353;28;19926;-74
2021/04/18 05:11:56;;;;;;;;;;;;;;;;;;5094678;28;19923;-73
2021/04/18 05:14:22;;;;;;;;;;;;;;;;;;5094990;28;19915;-74
2021/04/18 05:16:47;;;;;;;;;;;;;;;;;;5096317;28;19916;-73
2021/04/18 05:19:12;;;;;;;;;;;;;;;;;;5096243;28;20267;-73
2021/04/18 05:21:38;;;;;;;;;;;;;;;;;;5094864;28;19912;-74
2021/04/18 05:24:03;;;;;;;;;;;;;;;;;;5095968;28;20003;-74
2021/04/18 05:26:29;;;;;;;;;;;;;;;;;;5095367;28;19920;-74
2021/04/18 05:28:55;;;;;;;;;;;;;;;;;;5095869;28;19912;-74
2021/04/18 05:31:21;;;;;;;;;;;;;;;;;;5095858;28;19916;-74
2021/04/18 05:33:46;;;;;;;;;;;;;;;;;;5095496;28;19912;-74
2021/04/18 05:36:12;;;;;;;;;;;;;;;;;;5094815;28;19942;-74
2021/04/18 05:38:37;;;;;;;;;;;;;;;;;;5094678;28;19919;-74
2021/04/18 05:41:03;;;;;;;;;;;;;;;;;;5095327;28;19915;-74
2021/04/18 05:43:28;;;;;;;;;;;;;;;;;;5095685;28;20320;-74
2021/04/18 05:45:54;;;;;;;;;;;;;;;;;;5093803;28;19915;-74
2021/04/18 05:48:19;;;;;;;;;;;;;;;;;;5095750;28;19919;-74
2021/04/18 05:50:45;;;;;;;;;;;;;;;;;;5094544;28;19919;-74
2021/04/18 05:53:10;;;;;;;;;;;;;;;;;;5095447;28;19919;-74
2021/04/18 05:55:37;;;;;;;;;;;;;;;;;;5095299;28;19916;-74
2021/04/18 05:58:03;;;;;;;;;;;;;;;;;;5094213;28;20400;-74
2021/04/18 06:00:28;;;;;;;;;;;;;;;;;;5095495;28;19916;-74
2021/04/18 06:02:53;;;;;;;;;;;;;;;;;;5094198;28;20354;-74
2021/04/18 06:05:18;;;;;;;;;;;;;;;;;;5095301;28;19912;-74
2021/04/18 06:07:44;;;;;;;;;;;;;;;;;;5093767;28;19912;-74
2021/04/18 06:10:12;;;;;;;;;;;;;;;;;;5093696;28;19912;-74
2021/04/18 06:12:38;;;;;;;;;;;;;;;;;;5094741;28;20304;-74
2021/04/18 06:15:03;;;;;;;;;;;;;;;;;;5095201;28;19947;-74
2021/04/18 06:17:29;;;;;;;;;;;;;;;;;;5095030;28;19915;-74
2021/04/18 06:19:54;;;;;;;;;;;;;;;;;;5094907;28;19916;-74
2021/04/18 06:22:19;;;;;;;;;;;;;;;;;;5093754;28;19912;-75
2021/04/18 06:24:45;;;;;;;;;;;;;;;;;;5094815;28;20006;-74
2021/04/18 06:27:10;;;;;;;;;;;;;;;;;;5094722;28;19915;-74
2021/04/18 06:29:35;;;;;;;;;;;;;;;;;;5093638;28;20274;-74
2021/04/18 06:32:01;;;;;;;;;;;;;;;;;;5094802;28;20373;-74
2021/04/18 06:34:26;;;;;;;;;;;;;;;;;;5094884;28;19912;-74
2021/04/18 06:36:51;;;;;;;;;;;;;;;;;;5094813;28;19911;-74
2021/04/18 06:39:17;;;;;;;;;;;;;;;;;;5094349;28;19959;-75
2021/04/18 06:41:46;;;;;;;;;;;;;;;;;;5093481;28;19973;-74
2021/04/18 06:44:15;;;;;;;;;;;;;;;;;;5094730;28;20381;-74
2021/04/18 06:46:41;;;;;;;;;;;;;;;;;;5094410;28;19912;-74
2021/04/18 06:49:07;;;;;;;;;;;;;;;;;;5093998;28;19912;-74
2021/04/18 06:51:32;;;;;;;;;;;;;;;;;;5094273;28;20372;-74
2021/04/18 06:53:57;;;;;;;;;;;;;;;;;;5092912;28;19912;-74
2021/04/18 06:56:23;;;;;;;;;;;;;;;;;;5094351;28;19912;-76
2021/04/18 06:58:48;;;;;;;;;;;;;;;;;;5094310;28;19916;-75
2021/04/18 07:01:13;;;;;;;;;;;;;;;;;;5094272;28;19962;-77
2021/04/18 07:03:39;;;;;;;;;;;;;;;;;;5092858;28;19916;-76
2021/04/18 07:06:04;;;;;;;;;;;;;;;;;;5094561;28;19933;-79
2021/04/18 07:08:31;;;;;;;;;;;;;;;;;;5093826;28;19908;-79
2021/04/18 07:11:13;;;;;;;;;;;;;;;;;;5093979;28;19916;-75
2021/04/18 07:13:40;;;;;;;;;;;;;;;;;;5077953;28;19919;-77
2021/04/18 07:16:20;;;;;;;;;;;;;;;;;;5072413;28;19912;-78
2021/04/18 07:18:45;;;;;;;;;;;;;;;;;;5073569;28;19916;-75
2021/04/18 07:21:11;;;;;;;;;;;;;;;;;;5076966;28;19927;-78
2021/04/18 07:23:36;;;;;;;;;;;;;;;;;;5077838;28;19919;-78
2021/04/18 07:26:16;;;;;;;;;;;;;;;;;;5075275;28;19951;-77
2021/04/18 07:28:42;;;;;;;;;;;;;;;;;;5074223;28;19958;-77
2021/04/18 07:31:07;;;;;;;;;;;;;;;;;;5072245;28;19920;-77
2021/04/18 07:33:32;;;;;;;;;;;;;;;;;;5072258;28;19916;-77
2021/04/18 07:35:57;;;;;;;;;;;;;;;;;;5072618;28;19935;-74
2021/04/18 07:38:25;;;;;;;;;;;;;;;;;;5072094;28;19912;-75
2021/04/18 07:40:52;;;;;;;;;;;;;;;;;;5091363;28;19912;-75
2021/04/18 07:43:18;;;;;;;;;;;;;;;;;;5093675;28;19965;-74
2021/04/18 07:45:45;;;;;;;;;;;;;;;;;;5093732;28;20011;-75
2021/04/18 07:48:11;;;;;;;;;;;;;;;;;;5092295;28;20037;-76
2021/04/18 07:50:36;;;;;;;;;;;;;;;;;;5075781;28;19923;-75
2021/04/18 07:53:02;;;;;;;;;;;;;;;;;;5073347;28;19912;-76
2021/04/18 07:55:29;;;;;;;;;;;;;;;;;;5073262;28;19917;-77
2021/04/18 07:57:55;;;;;;;;;;;;;;;;;;5073320;28;19912;-77
2021/04/18 08:00:20;;;;;;;;;;;;;;;;;;5094226;28;20010;-78
2021/04/18 08:02:47;;;;;;;;;;;;;;;;;;5113711;28;19968;-76
2021/04/18 08:05:16;;;;;;;;;;;;;;;;;;5114070;28;19908;-77
2021/04/18 08:07:56;;;;;;;;;;;;;;;;;;5114216;28;19912;-77
2021/04/18 08:10:31;;;;;;;;;;;;;;;;;;5113322;28;19961;-77
2021/04/18 08:13:07;;;;;;;;;;;;;;;;;;5114142;28;19912;-79
2021/04/18 08:15:33;;;;;;;;;;;;;;;;;;5113653;28;19915;-77
2021/04/18 08:18:14;;;;;;;;;;;;;;;;;;5113219;28;20285;-77
2021/04/18 08:20:44;;;;;;;;;;;;;;;;;;5112536;28;19916;-77
2021/04/18 08:23:11;;;;;;;;;;;;;;;;;;5113781;28;19935;-79
2021/04/18 08:25:38;;;;;;;;;;;;;;;;;;5113292;28;20547;-77
2021/04/18 08:28:04;;;;;;;;;;;;;;;;;;5113412;28;19919;-76
2021/04/18 08:30:30;;;;;;;;;;;;;;;;;;5100314;28;20378;-76
2021/04/18 08:32:56;;;;;;;;;;;;;;;;;;5095697;28;20014;-78
2021/04/18 08:35:25;;;;;;;;;;;;;;;;;;5097509;28;19912;-79
2021/04/18 08:38:09;;;;;;;;;;;;;;;;;;5103908;28;20415;-77
2021/04/18 08:40:34;;;;;;;;;;;;;;;;;;5098264;28;19927;-79
2021/04/18 08:43:18;;;;;;;;;;;;;;;;;;5110587;28;19912;-80
2021/04/18 08:45:48;;;;;;;;;;;;;;;;;;5120562;28;19935;-80
2021/04/18 08:48:13;;;;;;;;;;;;;;;;;;5120546;28;19914;-79
2021/04/18 08:50:50;;;;;;;;;;;;;;;;;;5120749;28;19955;-78
2021/04/18 08:53:15;;;;;;;;;;;;;;;;;;5122053;28;20404;-78
2021/04/18 08:55:54;;;;;;;;;;;;;;;;;;5124024;28;19911;-78
2021/04/18 08:58:32;;;;;;;;;;;;;;;;;;5122401;28;19966;-80
2021/04/18 09:01:04;;;;;;;;;;;;;;;;;;5121586;28;19907;-78
2021/04/18 09:03:30;;;;;;;;;;;;;;;;;;5120120;28;19911;-78
2021/04/18 09:06:08;;;;;;;;;;;;;;;;;;5120545;28;19915;-78
2021/04/18 09:08:33;;;;;;;;;;;;;;;;;;5105101;28;19926;-78
2021/04/18 09:11:02;;;;;;;;;;;;;;;;;;5080809;28;20022;-78
2021/04/18 09:13:28;;;;;;;;;;;;;;;;;;5079465;28;19938;-80
2021/04/18 09:15:53;;;;;;;;;;;;;;;;;;5079894;28;19984;-80
2021/04/18 09:18:24;;;;;;;;;;;;;;;;;;5079403;28;20385;-79
2021/04/18 09:21:08;;;;;;;;;;;;;;;;;;5078382;28;19912;-77
2021/04/18 09:23:53;;;;;;;;;;;;;;;;;;5076500;28;20270;-78
2021/04/18 09:26:19;;;;;;;;;;;;;;;;;;5075590;28;19912;-76
2021/04/18 09:29:03;;;;;;;;;;;;;;;;;;5076243;28;19958;-76
2021/04/18 09:31:28;;;;;;;;;;;;;;;;;;5075428;28;20007;-75
2021/04/18 09:34:04;;;;;;;;;;;;;;;;;;5075781;28;20443;-75
2021/04/18 09:36:29;;;;;;;;;;;;;;;;;;5075612;28;20405;-75
2021/04/18 09:38:55;;;;;;;;;;;;;;;;;;5096036;28;19915;-76
2021/04/18 09:41:20;;;;;;;;;;;;;;;;;;5117736;28;20406;-77
2021/04/18 09:43:53;;;;;;;;;;;;;;;;;;5118757;28;19919;-82
2021/04/18 09:46:18;;;;;;;;;;;;;;;;;;5118911;28;19986;-78
2021/04/18 09:48:55;;;;;;;;;;;;;;;;;;5109847;28;19911;-78
2021/04/18 09:51:20;;;;;;;;;;;;;;;;;;5099770;28;20547;-78
2021/04/18 09:53:58;;;;;;;;;;;;;;;;;;5100947;28;19987;-78
2021/04/18 09:56:24;;;;;;;;;;;;;;;;;;5099597;28;19958;-79
2021/04/18 09:58:49;;;;;;;;;;;;;;;;;;5101103;28;19916;-82
2021/04/18 10:01:28;;;;;;;;;;;;;;;;;;5100479;28;19912;-76
2021/04/18 10:03:53;;;;;;;;;;;;;;;;;;5096344;28;19911;-78
2021/04/18 10:06:19;;;;;;;;;;;;;;;;;;5097750;28;19945;-79
2021/04/18 10:08:57;;;;;;;;;;;;;;;;;;5095872;28;20014;-75
2021/04/18 10:11:23;;;;;;;;;;;;;;;;;;5113232;28;19912;-78
2021/04/18 10:13:50;;;;;;;;;;;;;;;;;;5120583;28;19933;-83
2021/04/18 10:16:16;;;;;;;;;;;;;;;;;;5119057;28;19955;-80
2021/04/18 10:19:02;;;;;;;;;;;;;;;;;;5118081;28;19915;-81
2021/04/18 10:21:28;;;;;;;;;;;;;;;;;;5118029;28;19934;-80
2021/04/18 10:23:54;;;;;;;;;;;;;;;;;;5117925;28;19911;-81
2021/04/18 10:26:20;;;;;;;;;;;;;;;;;;5117250;28;19990;-80
2021/04/18 10:28:49;;;;;;;;;;;;;;;;;;5119423;28;19908;-81
2021/04/18 10:31:15;;;;;;;;;;;;;;;;;;5120114;28;19915;-82
2021/04/18 10:33:40;;;;;;;;;;;;;;;;;;5121205;28;20326;-86
2021/04/18 10:36:06;;;;;;;;;;;;;;;;;;5120498;28;19941;-81
2021/04/18 10:38:31;;;;;;;;;;;;;;;;;;5100619;28;19912;-82
2021/04/18 10:40:57;;;;;;;;;;;;;;;;;;5104291;28;19912;-79
2021/04/18 10:43:22;;;;;;;;;;;;;;;;;;5082231;28;20426;-77
2021/04/18 10:45:47;;;;;;;;;;;;;;;;;;5074215;28;19919;-76
2021/04/18 10:48:13;;;;;;;;;;;;;;;;;;5074439;28;19913;-76
2021/04/18 10:50:38;;;;;;;;;;;;;;;;;;5074252;28;19916;-76
2021/04/18 10:53:03;;;;;;;;;;;;;;;;;;5072882;28;19913;-76
2021/04/18 10:55:29;;;;;;;;;;;;;;;;;;5071791;28;20354;-77
2021/04/18 10:57:54;;;;;;;;;;;;;;;;;;5073937;28;20298;-77
2021/04/18 11:00:20;;;;;;;;;;;;;;;;;;5055878;28;19931;-77
2021/04/18 11:02:55;;;;;;;;;;;;;;;;;;5072809;28;19997;-77
2021/04/18 11:05:27;;;;;;;;;;;;;;;;;;5072656;28;19924;-76
2021/04/18 11:07:54;;;;;;;;;;;;;;;;;;5072351;28;19951;-77
2021/04/18 11:10:20;;;;;;;;;;;;;;;;;;5073527;28;20423;-77
2021/04/18 11:12:45;;;;;;;;;;;;;;;;;;5091033;28;19923;-77
2021/04/18 11:15:11;;;;;;;;;;;;;;;;;;5092656;28;20320;-76
2021/04/18 11:17:37;;;;;;;;;;;;;;;;;;5093822;28;20007;-77
2021/04/18 11:20:12;;;;;;;;;;;;;;;;;;5092266;28;19916;-76
2021/04/18 11:22:38;;;;;;;;;;;;;;;;;;5093073;28;19915;-77
2021/04/18 11:25:08;;;;;;;;;;;;;;;;;;5094107;28;20263;-77
2021/04/18 11:27:33;;;;;;;;;;;;;;;;;;5093598;28;19918;-77
2021/04/18 11:29:58;;;;;;;;;;;;;;;;;;5094088;28;19998;-77
2021/04/18 11:32:24;;;;;;;;;;;;;;;;;;5093739;28;19916;-77
2021/04/18 11:34:49;;;;;;;;;;;;;;;;;;5093873;28;19912;-76
2021/04/18 11:37:15;;;;;;;;;;;;;;;;;;5093652;28;19916;-77
2021/04/18 11:39:40;;;;;;;;;;;;;;;;;;5091381;28;19916;-77
2021/04/18 11:42:06;;;;;;;;;;;;;;;;;;5093793;28;20251;-77
2021/04/18 11:44:32;;;;;;;;;;;;;;;;;;5093796;28;19912;-77
2021/04/18 11:46:57;;;;;;;;;;;;;;;;;;5093683;28;19912;-77
2021/04/18 11:49:23;;;;;;;;;;;;;;;;;;5092556;28;20053;-77
2021/04/18 11:51:48;;;;;;;;;;;;;;;;;;5091972;28;20010;-77
2021/04/18 11:54:14;;;;;;;;;;;;;;;;;;5093111;28;19918;-77
2021/04/18 11:56:39;;;;;;;;;;;;;;;;;;5093684;28;19912;-77
2021/04/18 11:59:05;;;;;;;;;;;;;;;;;;5093646;28;20314;-77
2021/04/18 12:01:31;;;;;;;;;;;;;;;;;;5092317;28;20014;-77
2021/04/18 12:03:56;;;;;;;;;;;;;;;;;;5093590;28;20022;-77
2021/04/18 12:06:21;;;;;;;;;;;;;;;;;;5092469;28;19934;-77
2021/04/18 12:08:47;;;;;;;;;;;;;;;;;;5097157;28;19935;-77
2021/04/18 12:11:12;;;;;;;;;;;;;;;;;;5097445;28;19919;-77
2021/04/18 12:13:37;;;;;;;;;;;;;;;;;;5096671;28;19957;-77
2021/04/18 12:16:03;;;;;;;;;;;;;;;;;;5097609;28;20357;-77
2021/04/18 12:18:29;;;;;;;;;;;;;;;;;;5097048;28;19908;-77
2021/04/18 12:20:54;;;;;;;;;;;;;;;;;;5097259;28;20254;-75
2021/04/18 12:23:19;;;;;;;;;;;;;;;;;;5097350;28;20015;-76
2021/04/18 12:25:45;;;;;;;;;;;;;;;;;;5097023;28;19912;-76
2021/04/18 12:28:11;;;;;;;;;;;;;;;;;;5095796;28;19912;-76
2021/04/18 12:30:37;;;;;;;;;;;;;;;;;;5097215;28;19916;-75
2021/04/18 12:33:02;;;;;;;;;;;;;;;;;;5096945;28;20255;-76
2021/04/18 12:35:27;;;;;;;;;;;;;;;;;;5096821;28;19919;-76
2021/04/18 12:37:53;;;;;;;;;;;;;;;;;;5096759;28;20004;-76
2021/04/18 12:40:18;;;;;;;;;;;;;;;;;;5095360;28;19922;-76
2021/04/18 12:42:43;;;;;;;;;;;;;;;;;;5095700;28;19919;-76
2021/04/18 12:45:09;;;;;;;;;;;;;;;;;;5095702;28;19919;-76
2021/04/18 12:47:35;;;;;;;;;;;;;;;;;;5096756;28;19912;-76
2021/04/18 12:50:00;;;;;;;;;;;;;;;;;;5095278;28;19947;-76
2021/04/18 12:52:25;;;;;;;;;;;;;;;;;;5096647;28;19992;-76
2021/04/18 12:54:51;;;;;;;;;;;;;;;;;;5096694;28;19919;-76
2021/04/18 12:57:17;;;;;;;;;;;;;;;;;;5096659;28;19908;-76
2021/04/18 12:59:45;;;;;;;;;;;;;;;;;;5096579;28;19973;-74
2021/04/18 13:02:11;;;;;;;;;;;;;;;;;;5095910;28;19912;-74
2021/04/18 13:04:36;;;;;;;;;;;;;;;;;;5094725;28;20278;-76
2021/04/18 13:07:02;;;;;;;;;;;;;;;;;;5096307;28;19922;-76
2021/04/18 13:09:28;;;;;;;;;;;;;;;;;;5095534;28;20002;-76
2021/04/18 13:11:53;;;;;;;;;;;;;;;;;;5095302;28;19947;-76
2021/04/18 13:14:19;;;;;;;;;;;;;;;;;;5096460;28;20419;-74
2021/04/18 13:16:45;;;;;;;;;;;;;;;;;;5090218;28;19941;-74
2021/04/18 13:19:11;;;;;;;;;;;;;;;;;;5095243;28;19916;-74
2021/04/18 13:21:36;;;;;;;;;;;;;;;;;;5095891;28;20381;-74
2021/04/18 13:24:03;;;;;;;;;;;;;;;;;;5085215;28;20425;-74
2021/04/18 13:26:28;;;;;;;;;;;;;;;;;;5086780;28;19912;-74
2021/04/18 13:28:54;;;;;;;;;;;;;;;;;;5083819;28;20041;-74
2021/04/18 13:31:19;;;;;;;;;;;;;;;;;;5075655;28;19916;-74
2021/04/18 13:33:45;;;;;;;;;;;;;;;;;;5075559;28;19914;-74
2021/04/18 13:36:10;;;;;;;;;;;;;;;;;;5075194;28;19913;-74
2021/04/18 13:38:36;;;;;;;;;;;;;;;;;;5074623;28;19916;-74
2021/04/18 13:41:02;;;;;;;;;;;;;;;;;;5094267;28;20350;-74
2021/04/18 13:43:27;;;;;;;;;;;;;;;;;;5095878;28;19912;-74
2021/04/18 13:45:53;;;;;;;;;;;;;;;;;;5095893;28;19918;-74
2021/04/18 13:48:18;;;;;;;;;;;;;;;;;;5094773;28;19912;-74
2021/04/18 13:50:43;;;;;;;;;;;;;;;;;;5093820;28;19995;-74
2021/04/18 13:53:10;;;;;;;;;;;;;;;;;;5095621;28;20373;-74
2021/04/18 13:55:36;;;;;;;;;;;;;;;;;;5094630;28;19963;-74
2021/04/18 13:58:01;;;;;;;;;;;;;;;;;;5095399;28;20318;-74
2021/04/18 14:00:27;;;;;;;;;;;;;;;;;;5095288;28;19916;-74
2021/04/18 14:02:52;;;;;;;;;;;;;;;;;;5095116;28;19912;-74
2021/04/18 14:05:18;;;;;;;;;;;;;;;;;;5095011;28;19962;-74
2021/04/18 14:07:43;;;;;;;;;;;;;;;;;;5094033;28;19912;-74
2021/04/18 14:10:10;;;;;;;;;;;;;;;;;;5092834;28;19957;-74
2021/04/18 14:12:35;;;;;;;;;;;;;;;;;;5095129;28;19912;-74
2021/04/18 14:15:01;;;;;;;;;;;;;;;;;;5095314;28;19957;-74
2021/04/18 14:17:26;;;;;;;;;;;;;;;;;;5094962;28;20378;-74
2021/04/18 14:19:58;;;;;;;;;;;;;;;;;;5094762;28;19942;-74
2021/04/18 14:22:24;;;;;;;;;;;;;;;;;;5094833;28;19912;-74
2021/04/18 14:24:49;;;;;;;;;;;;;;;;;;5094458;28;19957;-74
2021/04/18 14:27:15;;;;;;;;;;;;;;;;;;5094872;28;19912;-73
2021/04/18 14:29:40;;;;;;;;;;;;;;;;;;5094738;28;19942;-74
2021/04/18 14:32:06;;;;;;;;;;;;;;;;;;5094601;28;19923;-73
2021/04/18 14:34:31;;;;;;;;;;;;;;;;;;5094685;28;19920;-74
2021/04/18 14:36:56;;;;;;;;;;;;;;;;;;5093203;28;20338;-74
2021/04/18 14:39:27;;;;;;;;;;;;;;;;;;5094640;28;19916;-74
2021/04/18 14:41:52;;;;;;;;;;;;;;;;;;5093415;28;19912;-74
2021/04/18 14:44:19;;;;;;;;;;;;;;;;;;5094779;28;19919;-74
2021/04/18 14:46:45;;;;;;;;;;;;;;;;;;5092872;28;19916;-74
2021/04/18 14:49:10;;;;;;;;;;;;;;;;;;5094368;28;19918;-75
2021/04/18 14:51:36;;;;;;;;;;;;;;;;;;5094438;28;19949;-75
2021/04/18 14:54:01;;;;;;;;;;;;;;;;;;5094495;28;19912;-75
2021/04/18 14:56:26;;;;;;;;;;;;;;;;;;5094394;28;19957;-75
2021/04/18 14:58:52;;;;;;;;;;;;;;;;;;5093882;28;20010;-74
2021/04/18 15:01:17;;;;;;;;;;;;;;;;;;5093867;28;19916;-74
2021/04/18 15:03:42;;;;;;;;;;;;;;;;;;5094092;28;19912;-74
2021/04/18 15:06:08;;;;;;;;;;;;;;;;;;5094134;28;19916;-74
2021/04/18 15:08:33;;;;;;;;;;;;;;;;;;5091842;28;19977;-74
2021/04/18 15:10:59;;;;;;;;;;;;;;;;;;5094134;28;19980;-74
2021/04/18 15:13:24;;;;;;;;;;;;;;;;;;5093135;28;19908;-74
2021/04/18 15:15:49;;;;;;;;;;;;;;;;;;5093708;28;19912;-74
2021/04/18 15:18:15;;;;;;;;;;;;;;;;;;5093760;28;20269;-73
2021/04/18 15:20:40;;;;;;;;;;;;;;;;;;5092700;28;20442;-74
2021/04/18 15:23:05;;;;;;;;;;;;;;;;;;5094024;28;19923;-73
2021/04/18 15:25:31;;;;;;;;;;;;;;;;;;5094138;28;19912;-73
2021/04/18 15:28:01;;;;;;;;;;;;;;;;;;5095358;28;20014;-73
2021/04/18 15:30:26;;;;;;;;;;;;;;;;;;5096321;28;20277;-74
2021/04/18 15:32:51;;;;;;;;;;;;;;;;;;5094464;28;19934;-74
2021/04/18 15:35:17;;;;;;;;;;;;;;;;;;5093690;28;19912;-73
2021/04/18 15:37:43;;;;;;;;;;;;;;;;;;5093039;28;19994;-73
2021/04/18 15:40:09;;;;;;;;;;;;;;;;;;5092918;28;19938;-73
2021/04/18 15:42:34;;;;;;;;;;;;;;;;;;5090335;28;20003;-73
2021/04/18 15:45:02;;;;;;;;;;;;;;;;;;5091891;28;19955;-73
2021/04/18 15:47:27;;;;;;;;;;;;;;;;;;5092675;28;20006;-73
2021/04/18 15:49:53;;;;;;;;;;;;;;;;;;5093106;28;20011;-73
2021/04/18 15:52:18;;;;;;;;;;;;;;;;;;5093477;28;19943;-74
2021/04/18 15:54:44;;;;;;;;;;;;;;;;;;5093526;28;19912;-72
2021/04/18 15:57:09;;;;;;;;;;;;;;;;;;5091405;28;19912;-73
2021/04/18 15:59:34;;;;;;;;;;;;;;;;;;5093030;28;19916;-73
2021/04/18 16:02:00;;;;;;;;;;;;;;;;;;5093460;28;19912;-73
2021/04/18 16:04:29;;;;;;;;;;;;;;;;;;5093585;28;20304;-73
2021/04/18 16:06:57;;;;;;;;;;;;;;;;;;5093500;28;20312;-73
2021/04/18 16:09:23;;;;;;;;;;;;;;;;;;5092221;28;19911;-73
2021/04/18 16:11:49;;;;;;;;;;;;;;;;;;5092409;28;19912;-73
2021/04/18 16:14:14;;;;;;;;;;;;;;;;;;5091603;28;19926;-73
2021/04/18 16:16:40;;;;;;;;;;;;;;;;;;5093253;28;19919;-73
2021/04/18 16:19:05;;;;;;;;;;;;;;;;;;5091828;28;19916;-72
2021/04/18 16:21:32;;;;;;;;;;;;;;;;;;5092967;28;19957;-73
2021/04/18 16:23:58;;;;;;;;;;;;;;;;;;5093330;28;19911;-73
2021/04/18 16:26:24;;;;;;;;;;;;;;;;;;5093291;28;20022;-73
2021/04/18 16:28:50;;;;;;;;;;;;;;;;;;5093153;28;20006;-73
2021/04/18 16:31:15;;;;;;;;;;;;;;;;;;5093046;28;20003;-73
2021/04/18 16:33:41;;;;;;;;;;;;;;;;;;5092163;28;19912;-73
2021/04/18 16:36:07;;;;;;;;;;;;;;;;;;5093227;28;19916;-73
2021/04/18 16:38:33;;;;;;;;;;;;;;;;;;5092843;28;20393;-73
2021/04/18 16:40:59;;;;;;;;;;;;;;;;;;5090528;28;19998;-73
2021/04/18 16:43:24;;;;;;;;;;;;;;;;;;5074955;28;19999;-72